createdAt,value
2019-02-14T00:00:40.964Z,12.37
2019-02-14T00:03:09.650Z,13.17
2019-02-14T00:05:38.386Z,14.10
2019-02-14T00:08:07.072Z,14.07
2019-02-14T00:10:35.758Z,13.70
2019-02-14T00:13:04.442Z,13.70
2019-02-14T00:15:33.103Z,12.83
2019-02-14T00:18:01.672Z,12.70
2019-02-14T00:20:30.333Z,12.10
2019-02-14T00:22:59.020Z,12.43
2019-02-14T00:25:27.690Z,12.53
2019-02-14T00:27:56.363Z,12.90
2019-02-14T00:30:25.050Z,13.70
2019-02-14T00:32:53.665Z,13.47
2019-02-14T00:35:25.214Z,14.50
2019-02-14T00:37:52.820Z,13.10
2019-02-14T00:40:21.446Z,13.83
2019-02-14T00:42:50.188Z,12.73
2019-02-14T00:45:18.806Z,13.90
2019-02-14T00:47:47.465Z,16.00
2019-02-14T00:50:16.237Z,14.60
2019-02-14T00:52:44.849Z,13.50
2019-02-14T00:55:13.528Z,13.00
2019-02-14T00:57:42.156Z,12.90
2019-02-14T01:00:11.594Z,13.83
2019-02-14T01:02:40.204Z,13.57
2019-02-14T01:05:09.025Z,13.30
2019-02-14T01:07:37.724Z,13.03
2019-02-14T01:10:07.120Z,12.43
2019-02-14T01:12:35.789Z,14.50
2019-02-14T01:15:07.521Z,13.80
2019-02-14T01:17:36.183Z,14.57
2019-02-14T01:20:06.199Z,13.40
2019-02-14T01:22:34.817Z,14.37
2019-02-14T01:25:03.588Z,13.30
2019-02-14T01:27:32.200Z,12.87
2019-02-14T01:30:00.872Z,14.23
2019-02-14T01:32:29.619Z,12.90
2019-02-14T01:34:58.231Z,13.53
2019-02-14T01:37:26.849Z,13.43
2019-02-14T01:39:55.534Z,13.40
2019-02-14T01:42:24.199Z,13.97
2019-02-14T01:44:52.902Z,12.13
2019-02-14T01:47:21.542Z,12.07
2019-02-14T01:49:50.217Z,12.37
2019-02-14T01:52:18.844Z,11.83
2019-02-14T01:54:47.524Z,11.37
2019-02-14T01:57:16.220Z,11.57
2019-02-14T01:59:44.832Z,11.80
2019-02-14T02:02:13.490Z,12.50
2019-02-14T02:04:42.163Z,11.87
2019-02-14T02:07:10.931Z,11.73
2019-02-14T02:09:39.676Z,12.27
2019-02-14T02:12:08.417Z,12.77
2019-02-14T02:14:37.103Z,13.13
2019-02-14T02:17:05.873Z,13.07
2019-02-14T02:19:34.526Z,11.60
2019-02-14T02:22:03.266Z,12.03
2019-02-14T02:24:31.948Z,11.43
2019-02-14T02:27:00.650Z,11.10
2019-02-14T02:29:29.298Z,12.03
2019-02-14T02:31:57.947Z,10.80
2019-02-14T02:34:26.611Z,11.90
2019-02-14T02:36:55.289Z,11.87
2019-02-14T02:39:23.902Z,13.10
2019-02-14T02:41:52.578Z,13.03
2019-02-14T02:44:21.271Z,12.07
2019-02-14T02:46:49.981Z,10.87
2019-02-14T02:49:18.692Z,11.20
2019-02-14T02:51:47.386Z,11.10
2019-02-14T02:54:16.063Z,11.93
2019-02-14T02:56:44.829Z,11.70
2019-02-14T02:59:14.234Z,13.20
2019-02-14T03:01:43.122Z,13.03
2019-02-14T03:04:11.731Z,13.20
2019-02-14T03:06:40.439Z,12.93
2019-02-14T03:09:09.086Z,12.23
2019-02-14T03:11:37.825Z,13.33
2019-02-14T03:14:06.480Z,13.10
2019-02-14T03:16:35.155Z,12.97
2019-02-14T03:19:03.844Z,14.27
2019-02-14T03:21:32.572Z,14.30
2019-02-14T03:24:01.232Z,13.37
2019-02-14T03:26:29.901Z,14.07
2019-02-14T03:28:58.549Z,13.03
2019-02-14T03:31:27.226Z,13.73
2019-02-14T03:33:55.806Z,13.40
2019-02-14T03:36:24.478Z,12.93
2019-02-14T03:38:53.087Z,12.87
2019-02-14T03:41:21.711Z,13.03
2019-02-14T03:43:50.394Z,13.90
2019-02-14T03:46:19.047Z,13.17
2019-02-14T03:48:47.649Z,13.73
2019-02-14T03:51:16.500Z,15.37
2019-02-14T03:53:45.211Z,14.10
2019-02-14T03:56:14.762Z,14.60
2019-02-14T03:58:43.498Z,14.03
2019-02-14T04:01:12.252Z,14.50
2019-02-14T04:03:40.870Z,12.70
2019-02-14T04:06:09.493Z,12.87
2019-02-14T04:08:38.231Z,12.93
2019-02-14T04:11:06.897Z,12.27
2019-02-14T04:13:35.519Z,13.77
2019-02-14T04:16:04.577Z,12.73
2019-02-14T04:18:33.547Z,12.87
2019-02-14T04:21:02.290Z,13.70
2019-02-14T04:23:30.960Z,13.10
2019-02-14T04:25:59.697Z,13.17
2019-02-14T04:28:28.384Z,12.23
2019-02-14T04:30:57.004Z,12.60
2019-02-14T04:33:25.722Z,12.23
2019-02-14T04:35:54.339Z,11.93
2019-02-14T04:38:23.026Z,12.27
2019-02-14T04:40:51.692Z,11.40
2019-02-14T04:43:20.311Z,11.97
2019-02-14T04:45:49.017Z,11.37
2019-02-14T04:48:17.699Z,11.77
2019-02-14T04:50:46.311Z,11.93
2019-02-14T04:53:15.004Z,11.07
2019-02-14T04:55:43.621Z,11.33
2019-02-14T04:58:12.256Z,11.83
2019-02-14T05:00:40.919Z,10.87
2019-02-14T05:03:09.579Z,11.17
2019-02-14T05:05:38.305Z,12.27
2019-02-14T05:08:07.050Z,11.33
2019-02-14T05:10:35.693Z,12.27
2019-02-14T05:13:04.460Z,13.50
2019-02-14T05:15:33.153Z,13.37
2019-02-14T05:18:01.856Z,13.80
2019-02-14T05:20:30.527Z,13.90
2019-02-14T05:22:59.149Z,13.37
2019-02-14T05:25:29.900Z,14.67
2019-02-14T05:27:58.572Z,15.00
2019-02-14T05:30:27.251Z,15.37
2019-02-14T05:32:55.864Z,14.20
2019-02-14T05:35:24.563Z,14.17
2019-02-14T05:37:53.210Z,14.10
2019-02-14T05:40:21.880Z,14.70
2019-02-14T05:42:50.503Z,14.03
2019-02-14T05:45:19.177Z,13.67
2019-02-14T05:47:48.096Z,12.60
2019-02-14T05:50:16.844Z,12.17
2019-02-14T05:52:45.538Z,12.13
2019-02-14T05:55:14.386Z,12.20
2019-02-14T05:57:43.114Z,11.93
2019-02-14T06:00:17.643Z,12.43
2019-02-14T06:02:46.310Z,11.67
2019-02-14T06:05:15.051Z,12.67
2019-02-14T06:07:43.785Z,12.00
2019-02-14T06:10:12.801Z,12.53
2019-02-14T06:12:41.429Z,11.93
2019-02-14T06:15:13.721Z,13.30
2019-02-14T06:17:42.381Z,12.73
2019-02-14T06:20:12.068Z,12.40
2019-02-14T06:22:40.740Z,11.90
2019-02-14T06:25:11.703Z,12.37
2019-02-14T06:27:40.415Z,12.37
2019-02-14T06:30:12.064Z,12.00
2019-02-14T06:32:40.784Z,11.30
2019-02-14T06:35:10.902Z,12.10
2019-02-14T06:37:39.595Z,12.30
2019-02-14T06:40:13.103Z,12.00
2019-02-14T06:42:41.852Z,11.17
2019-02-14T06:45:13.828Z,12.00
2019-02-14T06:47:42.529Z,11.80
2019-02-14T06:50:11.345Z,11.67
2019-02-14T06:52:40.463Z,11.87
2019-02-14T06:55:09.973Z,11.97
2019-02-14T06:57:38.593Z,11.50
2019-02-14T07:00:15.595Z,11.33
2019-02-14T07:02:44.292Z,11.77
2019-02-14T07:05:13.113Z,11.03
2019-02-14T07:07:41.746Z,11.17
2019-02-14T07:10:11.617Z,11.23
2019-02-14T07:12:40.320Z,11.70
2019-02-14T07:15:13.618Z,11.47
2019-02-14T07:17:42.394Z,12.20
2019-02-14T07:20:18.187Z,11.70
2019-02-14T07:22:46.864Z,11.47
2019-02-14T07:25:15.603Z,11.60
2019-02-14T07:27:44.421Z,11.77
2019-02-14T07:30:16.079Z,11.07
2019-02-14T07:32:44.773Z,11.63
2019-02-14T07:35:13.529Z,12.00
2019-02-14T07:37:42.215Z,12.03
2019-02-14T07:40:13.396Z,13.33
2019-02-14T07:42:42.183Z,12.63
2019-02-14T07:45:16.118Z,11.90
2019-02-14T07:47:44.796Z,11.60
2019-02-14T07:50:14.177Z,11.23
2019-02-14T07:52:43.010Z,10.43
2019-02-14T07:55:12.962Z,10.13
2019-02-14T07:57:41.917Z,10.10
2019-02-14T08:00:13.400Z,10.20
2019-02-14T08:02:42.177Z,9.80
2019-02-14T08:05:11.789Z,10.30
2019-02-14T08:07:40.528Z,9.83
2019-02-14T08:10:11.719Z,9.33
2019-02-14T08:12:40.515Z,8.33
2019-02-14T08:15:11.501Z,8.93
2019-02-14T08:17:40.312Z,8.70
2019-02-14T08:20:14.420Z,9.17
2019-02-14T08:22:43.074Z,8.67
2019-02-14T08:25:13.384Z,8.97
2019-02-14T08:27:42.125Z,9.60
2019-02-14T08:30:17.950Z,9.23
2019-02-14T08:32:46.594Z,9.33
2019-02-14T08:35:15.323Z,8.40
2019-02-14T08:37:45.906Z,8.50
2019-02-14T08:40:17.535Z,8.97
2019-02-14T08:42:46.316Z,9.20
2019-02-14T08:45:15.128Z,9.80
2019-02-14T08:47:43.840Z,9.27
2019-02-14T08:50:12.604Z,8.90
2019-02-14T08:52:41.468Z,9.00
2019-02-14T08:55:10.536Z,8.63
2019-02-14T08:57:39.301Z,8.77
2019-02-14T09:00:13.434Z,9.07
2019-02-14T09:02:42.167Z,9.50
2019-02-14T09:05:11.034Z,9.70
2019-02-14T09:07:39.837Z,9.97
2019-02-14T09:10:16.771Z,9.93
2019-02-14T09:12:45.546Z,10.57
2019-02-14T09:15:15.260Z,9.53
2019-02-14T09:17:44.060Z,10.90
2019-02-14T09:20:20.600Z,10.63
2019-02-14T09:22:49.314Z,11.50
2019-02-14T09:25:18.168Z,11.37
2019-02-14T09:27:46.974Z,10.77
2019-02-14T09:30:15.712Z,11.40
2019-02-14T09:32:44.413Z,11.10
2019-02-14T09:35:13.204Z,10.97
2019-02-14T09:37:41.907Z,11.03
2019-02-14T09:40:13.668Z,10.83
2019-02-14T09:42:42.535Z,11.67
2019-02-14T09:45:13.103Z,10.73
2019-02-14T09:47:41.867Z,11.10
2019-02-14T09:50:15.406Z,11.07
2019-02-14T09:52:44.228Z,10.10
2019-02-14T09:55:14.294Z,9.67
2019-02-14T09:57:43.019Z,10.50
2019-02-14T10:00:18.973Z,10.10
2019-02-14T10:02:47.727Z,10.17
2019-02-14T10:05:16.570Z,8.60
2019-02-14T10:07:45.434Z,8.77
2019-02-14T10:10:16.653Z,8.57
2019-02-14T10:12:45.367Z,8.00
2019-02-14T10:15:14.273Z,8.47
2019-02-14T10:17:43.030Z,8.70
2019-02-14T10:20:17.279Z,8.40
2019-02-14T10:22:46.138Z,8.50
2019-02-14T10:25:15.008Z,9.03
2019-02-14T10:27:43.754Z,8.80
2019-02-14T10:30:20.762Z,8.83
2019-02-14T10:32:49.819Z,8.73
2019-02-14T10:35:18.493Z,8.80
2019-02-14T10:37:47.197Z,9.00
2019-02-14T10:40:16.736Z,10.00
2019-02-14T10:42:45.497Z,9.20
2019-02-14T10:45:21.825Z,9.50
2019-02-14T10:47:50.579Z,8.70
2019-02-14T10:50:19.406Z,8.00
2019-02-14T10:52:48.132Z,6.47
2019-02-14T10:55:17.155Z,6.87
2019-02-14T10:57:45.960Z,6.17
2019-02-14T11:00:23.063Z,6.47
2019-02-14T11:02:52.049Z,6.27
2019-02-14T11:05:21.307Z,6.90
2019-02-14T11:07:49.957Z,6.87
2019-02-14T11:10:18.761Z,6.17
2019-02-14T11:12:48.623Z,6.60
2019-02-14T11:15:25.034Z,6.07
2019-02-14T11:17:53.775Z,5.80
2019-02-14T11:20:22.669Z,5.60
2019-02-14T11:22:51.462Z,5.17
2019-02-14T11:25:38.187Z,5.50
2019-02-14T11:28:06.899Z,5.53
2019-02-14T11:30:35.712Z,5.60
2019-02-14T11:33:04.536Z,4.97
2019-02-14T11:35:33.241Z,4.90
2019-02-14T11:38:01.945Z,5.43
2019-02-14T11:40:30.728Z,5.00
2019-02-14T11:42:59.486Z,5.10
2019-02-14T11:45:28.225Z,4.97
2019-02-14T11:47:56.839Z,4.90
2019-02-14T11:50:25.599Z,4.87
2019-02-14T11:52:54.335Z,5.33
2019-02-14T11:55:23.081Z,5.70
2019-02-14T11:57:51.847Z,5.20
2019-02-14T12:00:23.284Z,4.83
2019-02-14T12:02:55.753Z,4.67
2019-02-14T12:05:22.536Z,5.10
2019-02-14T12:07:51.326Z,4.40
2019-02-14T12:10:20.048Z,4.50
2019-02-14T12:12:48.744Z,4.60
2019-02-14T12:15:17.498Z,4.10
2019-02-14T12:17:46.238Z,4.10
2019-02-14T12:20:16.033Z,4.07
2019-02-14T12:22:47.042Z,3.80
2019-02-14T12:25:17.839Z,3.90
2019-02-14T12:27:46.502Z,3.70
2019-02-14T12:30:15.977Z,3.53
2019-02-14T12:32:44.874Z,3.77
2019-02-14T12:35:13.643Z,3.60
2019-02-14T12:37:42.374Z,3.73
2019-02-14T12:40:12.857Z,3.97
2019-02-14T12:42:41.733Z,4.00
2019-02-14T12:45:20.285Z,3.77
2019-02-14T12:47:43.665Z,3.33
2019-02-14T12:50:12.422Z,3.50
2019-02-14T12:52:41.215Z,3.87
2019-02-14T12:55:11.956Z,3.60
2019-02-14T12:57:40.443Z,3.20
2019-02-14T13:00:17.861Z,3.30
2019-02-14T13:02:46.683Z,3.30
2019-02-14T13:05:15.440Z,3.27
2019-02-14T13:07:44.259Z,3.33
2019-02-14T13:10:15.159Z,3.17
2019-02-14T13:12:43.885Z,3.37
2019-02-14T13:15:14.890Z,4.07
2019-02-14T13:17:43.555Z,3.30
2019-02-14T13:20:12.383Z,3.47
2019-02-14T13:22:41.082Z,3.60
2019-02-14T13:25:12.021Z,3.60
2019-02-14T13:27:40.864Z,3.60
2019-02-14T13:30:18.182Z,3.77
2019-02-14T13:32:46.995Z,3.40
2019-02-14T13:35:15.668Z,3.40
2019-02-14T13:37:44.474Z,3.43
2019-02-14T13:40:13.637Z,3.37
2019-02-14T13:42:42.587Z,3.00
2019-02-14T13:45:17.086Z,3.20
2019-02-14T13:47:45.951Z,3.30
2019-02-14T13:50:16.086Z,3.20
2019-02-14T13:52:44.909Z,3.20
2019-02-14T13:55:13.781Z,3.20
2019-02-14T13:57:42.425Z,2.90
2019-02-14T14:00:14.419Z,3.30
2019-02-14T14:02:43.022Z,3.27
2019-02-14T14:05:11.708Z,2.90
2019-02-14T14:07:40.831Z,2.93
2019-02-14T14:10:10.289Z,3.70
2019-02-14T14:12:38.953Z,3.00
2019-02-14T14:15:09.803Z,2.80
2019-02-14T14:17:38.461Z,2.80
2019-02-14T14:20:08.613Z,3.00
2019-02-14T14:22:37.419Z,3.13
2019-02-14T14:25:08.135Z,2.70
2019-02-14T14:27:36.808Z,3.50
2019-02-14T14:30:11.084Z,3.20
2019-02-14T14:32:39.768Z,2.83
2019-02-14T14:35:11.053Z,3.53
2019-02-14T14:37:40.418Z,3.33
2019-02-14T14:40:12.024Z,2.60
2019-02-14T14:42:42.437Z,3.27
2019-02-14T14:45:12.884Z,3.13
2019-02-14T14:47:41.498Z,3.37
2019-02-14T14:50:10.290Z,2.80
2019-02-14T14:52:38.952Z,3.03
2019-02-14T14:55:07.699Z,3.33
2019-02-14T14:57:36.409Z,3.43
2019-02-14T15:00:07.374Z,3.30
2019-02-14T15:02:35.978Z,3.87
2019-02-14T15:05:05.927Z,4.10
2019-02-14T15:07:34.540Z,3.53
2019-02-14T15:10:03.627Z,3.90
2019-02-14T15:12:32.293Z,3.60
2019-02-14T15:15:00.972Z,3.80
2019-02-14T15:17:29.638Z,3.70
2019-02-14T15:19:58.264Z,3.17
2019-02-14T15:22:26.930Z,3.40
2019-02-14T15:24:55.625Z,3.53
2019-02-14T15:27:24.262Z,3.63
2019-02-14T15:29:52.961Z,3.80
2019-02-14T15:32:21.575Z,3.80
2019-02-14T15:34:50.223Z,3.90
2019-02-14T15:37:18.842Z,3.60
2019-02-14T15:39:47.638Z,4.00
2019-02-14T15:42:16.255Z,3.93
2019-02-14T15:44:44.913Z,3.90
2019-02-14T15:47:13.630Z,4.23
2019-02-14T15:49:42.437Z,4.17
2019-02-14T15:52:11.119Z,3.83
2019-02-14T15:54:39.857Z,3.90
2019-02-14T15:57:08.520Z,4.57
2019-02-14T15:59:37.128Z,4.00
2019-02-14T16:02:07.991Z,4.30
2019-02-14T16:04:36.122Z,4.70
2019-02-14T16:07:05.690Z,4.27
2019-02-14T16:09:36.026Z,4.23
2019-02-14T16:12:04.799Z,4.30
2019-02-14T16:14:33.503Z,4.30
2019-02-14T16:17:02.141Z,3.90
2019-02-14T16:19:32.223Z,3.70
2019-02-14T16:22:01.085Z,3.70
2019-02-14T16:24:29.755Z,4.10
2019-02-14T16:26:59.197Z,4.30
2019-02-14T16:29:28.832Z,3.70
2019-02-14T16:31:57.517Z,3.60
2019-02-14T16:34:26.251Z,4.07
2019-02-14T16:36:54.875Z,4.10
2019-02-14T16:39:51.295Z,3.90
2019-02-14T16:42:13.199Z,4.13
2019-02-14T16:44:41.844Z,4.10
2019-02-14T16:47:10.533Z,3.63
2019-02-14T16:49:39.178Z,3.80
2019-02-14T16:52:07.842Z,3.70
2019-02-14T16:54:36.451Z,4.27
2019-02-14T16:57:05.172Z,3.87
2019-02-14T16:59:33.858Z,4.20
2019-02-14T17:02:02.552Z,4.10
2019-02-14T17:04:31.193Z,3.80
2019-02-14T17:06:59.795Z,3.80
2019-02-14T17:09:28.440Z,4.00
2019-02-14T17:11:57.054Z,3.93
2019-02-14T17:14:25.708Z,3.70
2019-02-14T17:16:54.516Z,3.90
2019-02-14T17:19:23.172Z,4.10
2019-02-14T17:21:51.817Z,4.27
2019-02-14T17:24:20.453Z,4.07
2019-02-14T17:26:49.173Z,4.10
2019-02-14T17:29:17.817Z,4.13
2019-02-14T17:31:47.436Z,3.20
2019-02-14T17:34:16.144Z,3.50
2019-02-14T17:36:44.754Z,3.47
2019-02-14T17:39:13.409Z,3.90
2019-02-14T17:41:42.063Z,4.30
2019-02-14T17:44:10.671Z,4.13
2019-02-14T17:46:39.348Z,4.13
2019-02-14T17:49:08.027Z,4.67
2019-02-14T17:51:36.714Z,4.33
2019-02-14T17:54:05.423Z,3.97
2019-02-14T17:56:34.023Z,3.00
2019-02-14T17:59:02.708Z,3.90
2019-02-14T18:01:31.417Z,3.43
2019-02-14T18:04:00.029Z,3.17
2019-02-14T18:06:28.682Z,3.57
2019-02-14T18:08:57.360Z,3.77
2019-02-14T18:11:25.980Z,3.80
2019-02-14T18:13:54.648Z,4.27
2019-02-14T18:16:23.329Z,4.40
2019-02-14T18:18:52.037Z,4.23
2019-02-14T18:21:20.707Z,4.30
2019-02-14T18:23:49.331Z,4.20
2019-02-14T18:26:18.032Z,4.37
2019-02-14T18:28:46.703Z,4.20
2019-02-14T18:31:15.449Z,3.97
2019-02-14T18:33:44.189Z,5.03
2019-02-14T18:36:12.940Z,5.17
2019-02-14T18:38:41.810Z,4.67
2019-02-14T18:41:10.675Z,3.57
2019-02-14T18:43:39.531Z,3.40
2019-02-14T18:46:08.149Z,3.90
2019-02-14T18:48:36.813Z,3.50
2019-02-14T18:51:05.533Z,3.80
2019-02-14T18:53:34.223Z,4.10
2019-02-14T18:56:02.941Z,4.43
2019-02-14T18:58:31.644Z,4.03
2019-02-14T19:01:00.413Z,3.47
2019-02-14T19:03:29.204Z,3.67
2019-02-14T19:05:57.963Z,3.90
2019-02-14T19:08:26.680Z,4.07
2019-02-14T19:10:55.321Z,4.30
2019-02-14T19:13:23.981Z,4.30
2019-02-14T19:15:52.634Z,4.67
2019-02-14T19:18:21.409Z,4.77
2019-02-14T19:20:50.071Z,5.20
2019-02-14T19:23:23.910Z,4.90
2019-02-14T19:25:49.103Z,5.30
2019-02-14T19:28:17.794Z,4.80
2019-02-14T19:30:46.510Z,5.70
2019-02-14T19:33:15.361Z,5.43
2019-02-14T19:35:44.013Z,5.73
2019-02-14T19:38:12.671Z,6.30
2019-02-14T19:40:41.322Z,6.73
2019-02-14T19:43:09.985Z,6.73
2019-02-14T19:45:38.664Z,4.80
2019-02-14T19:48:07.387Z,5.00
2019-02-14T19:50:36.045Z,6.37
2019-02-14T19:53:04.686Z,6.57
2019-02-14T19:55:33.389Z,4.40
2019-02-14T19:58:02.004Z,5.03
2019-02-14T20:00:30.609Z,6.20
2019-02-14T20:02:59.344Z,6.67
2019-02-14T20:05:27.955Z,6.17
2019-02-14T20:07:56.690Z,6.90
2019-02-14T20:10:25.479Z,7.10
2019-02-14T20:12:54.151Z,7.00
2019-02-14T20:15:22.937Z,8.03
2019-02-14T20:17:51.605Z,7.27
2019-02-14T20:20:20.291Z,7.20
2019-02-14T20:22:48.968Z,7.40
2019-02-14T20:25:28.853Z,5.23
2019-02-14T20:27:57.510Z,5.27
2019-02-14T20:30:26.263Z,4.73
2019-02-14T20:33:03.895Z,5.40
2019-02-14T20:35:25.261Z,5.80
2019-02-14T20:37:53.860Z,5.93
2019-02-14T20:40:22.544Z,6.50
2019-02-14T20:42:51.273Z,6.53
2019-02-14T20:45:20.036Z,7.27
2019-02-14T20:47:48.762Z,7.70
2019-02-14T20:50:17.484Z,8.20
2019-02-14T20:52:46.177Z,9.57
2019-02-14T20:55:20.776Z,9.13
2019-02-14T20:57:49.441Z,8.50
2019-02-14T21:00:29.068Z,8.30
2019-02-14T21:02:57.744Z,9.17
2019-02-14T21:05:26.466Z,8.30
2019-02-14T21:07:55.220Z,8.93
2019-02-14T21:10:23.839Z,8.13
2019-02-14T21:12:52.525Z,8.90
2019-02-14T21:15:21.265Z,8.90
2019-02-14T21:17:49.990Z,8.50
2019-02-14T21:20:18.629Z,8.77
2019-02-14T21:22:47.391Z,8.40
2019-02-14T21:25:16.090Z,8.13
2019-02-14T21:27:44.804Z,8.07
2019-02-14T21:30:18.162Z,7.50
2019-02-14T21:32:46.754Z,8.27
2019-02-14T21:35:15.659Z,7.83
2019-02-14T21:37:44.375Z,6.63
2019-02-14T21:40:15.886Z,6.97
2019-02-14T21:42:44.697Z,5.77
2019-02-14T21:45:14.755Z,5.77
2019-02-14T21:47:43.592Z,6.57
2019-02-14T21:50:13.402Z,7.00
2019-02-14T21:52:42.106Z,7.40
2019-02-14T21:55:12.324Z,8.07
2019-02-14T21:57:41.081Z,7.97
2019-02-14T22:00:18.866Z,7.77
2019-02-14T22:02:47.659Z,7.17
2019-02-14T22:05:16.485Z,7.93
2019-02-14T22:07:45.226Z,7.70
2019-02-14T22:10:14.347Z,7.27
2019-02-14T22:12:43.963Z,8.60
2019-02-14T22:15:25.063Z,9.43
2019-02-14T22:17:53.885Z,8.57
2019-02-14T22:20:22.537Z,8.07
2019-02-14T22:22:51.197Z,8.80
2019-02-14T22:25:20.028Z,8.70
2019-02-14T22:27:48.737Z,7.43
2019-02-14T22:30:18.583Z,8.87
2019-02-14T22:32:47.531Z,8.03
2019-02-14T22:35:16.476Z,8.03
2019-02-14T22:37:45.253Z,8.87
2019-02-14T22:40:14.684Z,8.27
2019-02-14T22:42:47.324Z,7.73
2019-02-14T22:45:14.915Z,7.77
2019-02-14T22:47:44.759Z,7.27
2019-02-14T22:50:14.082Z,7.33
2019-02-14T22:52:42.820Z,7.90
2019-02-14T22:55:13.230Z,7.00
2019-02-14T22:57:42.062Z,7.93
2019-02-14T23:00:20.978Z,8.07
2019-02-14T23:02:49.866Z,6.97
2019-02-14T23:05:18.564Z,8.13
2019-02-14T23:07:47.228Z,7.53
2019-02-14T23:10:15.896Z,7.57
2019-02-14T23:12:44.655Z,8.53
2019-02-14T23:15:13.565Z,8.03
2019-02-14T23:17:42.416Z,7.70
2019-02-14T23:20:11.263Z,7.27
2019-02-14T23:22:40.116Z,7.30
2019-02-14T23:25:08.944Z,6.87
2019-02-14T23:27:37.711Z,7.53
2019-02-14T23:30:09.469Z,6.90
2019-02-14T23:59:53.607Z,7.50
